createdAt,value
2023-01-19T00:01:15.170Z,7.14
2023-01-19T00:03:43.405Z,7.16
2023-01-19T00:06:12.110Z,7.18
2023-01-19T00:08:40.475Z,7.21
2023-01-19T00:11:08.624Z,7.23
2023-01-19T00:13:37.131Z,7.28
2023-01-19T00:16:07.438Z,7.32
2023-01-19T00:18:35.578Z,7.32
2023-01-19T00:21:03.798Z,7.32
2023-01-19T00:23:31.909Z,7.32
2023-01-19T00:26:00.048Z,7.32
2023-01-19T00:28:28.283Z,7.33
2023-01-19T00:30:56.857Z,7.33
2023-01-19T00:33:25.087Z,7.34
2023-01-19T00:35:56.960Z,7.36
2023-01-19T00:38:25.146Z,7.37
2023-01-19T00:40:53.329Z,7.36
2023-01-19T00:43:21.907Z,7.34
2023-01-19T00:45:50.168Z,7.33
2023-01-19T00:48:18.384Z,7.32
2023-01-19T00:50:47.861Z,7.33
2023-01-19T00:53:15.998Z,7.34
2023-01-19T00:55:44.231Z,7.35
2023-01-19T00:58:12.385Z,7.35
2023-01-19T01:00:40.525Z,7.37
2023-01-19T01:03:09.961Z,7.37
2023-01-19T01:05:42.446Z,7.39
2023-01-19T01:08:10.585Z,7.40
2023-01-19T01:10:38.657Z,7.41
2023-01-19T01:13:20.790Z,7.42
2023-01-19T01:15:53.046Z,7.42
2023-01-19T01:18:22.216Z,7.41
2023-01-19T01:20:50.315Z,7.43
2023-01-19T01:23:23.018Z,7.42
2023-01-19T01:25:51.337Z,7.42
2023-01-19T01:28:19.441Z,7.40
2023-01-19T01:30:48.022Z,7.40
2023-01-19T01:33:16.165Z,7.41
2023-01-19T01:36:04.793Z,7.43
2023-01-19T01:38:33.103Z,7.42
2023-01-19T01:41:01.233Z,7.40
2023-01-19T01:43:58.745Z,7.40
2023-01-19T01:46:29.639Z,7.38
2023-01-19T01:49:17.637Z,7.36
2023-01-19T01:51:51.138Z,7.34
2023-01-19T01:54:27.648Z,7.34
2023-01-19T01:57:02.955Z,7.34
2023-01-19T01:59:39.154Z,7.32
2023-01-19T02:02:42.417Z,7.28
2023-01-19T02:05:33.975Z,7.27
2023-01-19T02:08:31.833Z,7.25
2023-01-19T02:11:20.096Z,7.25
2023-01-19T02:13:48.841Z,7.23
2023-01-19T02:16:17.837Z,7.20
2023-01-19T02:18:46.036Z,7.20
2023-01-19T02:21:44.587Z,7.19
2023-01-19T02:24:12.917Z,7.16
2023-01-19T02:26:47.602Z,7.11
2023-01-19T02:29:20.867Z,7.06
2023-01-19T02:31:49.009Z,7.04
2023-01-19T02:34:20.910Z,7.02
2023-01-19T02:36:56.516Z,7.01
2023-01-19T02:39:41.526Z,6.99
2023-01-19T02:42:27.148Z,6.98
2023-01-19T02:44:57.134Z,6.98
2023-01-19T02:47:25.286Z,6.98
2023-01-19T02:49:59.005Z,7.00
2023-01-19T02:52:28.065Z,7.00
2023-01-19T02:55:18.204Z,6.98
2023-01-19T02:58:13.465Z,6.94
2023-01-19T03:00:41.507Z,6.92
2023-01-19T03:03:33.084Z,6.90
2023-01-19T03:06:05.004Z,6.85
2023-01-19T03:08:53.053Z,6.81
2023-01-19T03:11:25.165Z,6.76
2023-01-19T03:14:01.683Z,6.71
2023-01-19T03:16:42.788Z,6.67
2023-01-19T03:19:20.460Z,6.61
2023-01-19T03:21:57.196Z,6.59
2023-01-19T03:24:30.955Z,6.55
2023-01-19T03:27:07.073Z,6.49
2023-01-19T03:29:38.633Z,6.46
2023-01-19T03:32:12.817Z,6.42
2023-01-19T03:34:43.175Z,6.39
2023-01-19T03:37:14.269Z,6.35
2023-01-19T03:39:42.723Z,6.31
2023-01-19T03:42:16.219Z,6.29
2023-01-19T03:44:46.630Z,6.27
2023-01-19T03:47:15.209Z,6.26
2023-01-19T03:49:45.716Z,6.25
2023-01-19T03:52:14.279Z,6.25
2023-01-19T03:54:43.437Z,6.24
2023-01-19T03:57:11.543Z,6.22
2023-01-19T03:59:39.602Z,6.20
2023-01-19T04:02:08.078Z,6.17
2023-01-19T04:04:36.202Z,6.14
2023-01-19T04:07:04.258Z,6.13
2023-01-19T04:09:32.485Z,6.10
2023-01-19T04:12:01.944Z,6.07
2023-01-19T04:14:30.088Z,6.06
2023-01-19T04:16:58.185Z,6.05
2023-01-19T04:19:26.310Z,6.04
2023-01-19T04:21:55.466Z,6.03
2023-01-19T04:24:23.562Z,6.02
2023-01-19T04:26:53.557Z,6.00
2023-01-19T04:29:21.641Z,5.98
2023-01-19T04:31:49.697Z,5.95
2023-01-19T04:34:17.833Z,5.93
2023-01-19T04:36:46.762Z,5.90
2023-01-19T04:39:14.885Z,5.87
2023-01-19T04:41:43.539Z,5.85
2023-01-19T04:44:11.661Z,5.83
2023-01-19T04:46:40.216Z,5.83
2023-01-19T04:49:10.127Z,5.82
2023-01-19T04:51:38.236Z,5.81
2023-01-19T04:54:09.043Z,5.81
2023-01-19T04:56:37.321Z,5.77
2023-01-19T04:59:05.388Z,5.74
2023-01-19T05:01:33.538Z,5.73
2023-01-19T05:04:03.769Z,5.72
2023-01-19T05:06:32.168Z,5.72
2023-01-19T05:09:00.522Z,5.72
2023-01-19T05:11:28.669Z,5.73
2023-01-19T05:13:56.811Z,5.74
2023-01-19T05:16:25.102Z,5.75
2023-01-19T05:18:53.323Z,5.76
2023-01-19T05:21:21.505Z,5.77
2023-01-19T05:23:49.579Z,5.79
2023-01-19T05:26:17.717Z,5.80
2023-01-19T05:28:45.834Z,5.82
2023-01-19T05:31:14.009Z,5.84
2023-01-19T05:33:42.593Z,5.85
2023-01-19T05:36:10.717Z,5.86
2023-01-19T05:38:38.754Z,5.86
2023-01-19T05:41:06.906Z,5.87
2023-01-19T05:43:35.012Z,5.89
2023-01-19T05:46:06.091Z,5.91
2023-01-19T05:48:34.233Z,5.92
2023-01-19T05:51:02.326Z,5.93
2023-01-19T05:53:31.068Z,5.94
2023-01-19T05:56:05.857Z,5.95
2023-01-19T05:58:35.464Z,5.97
2023-01-19T06:01:05.989Z,5.99
2023-01-19T06:03:35.626Z,6.06
2023-01-19T06:06:04.336Z,6.17
2023-01-19T06:08:32.674Z,6.23
2023-01-19T06:11:00.822Z,6.27
2023-01-19T06:13:28.941Z,6.32
2023-01-19T06:16:02.174Z,6.36
2023-01-19T06:18:30.322Z,6.40
2023-01-19T06:21:01.254Z,6.44
2023-01-19T06:23:34.295Z,6.50
2023-01-19T06:26:03.037Z,6.55
2023-01-19T06:28:31.827Z,6.59
2023-01-19T06:30:59.960Z,6.63
2023-01-19T06:33:28.453Z,6.64
2023-01-19T06:35:56.655Z,6.66
2023-01-19T06:38:24.774Z,6.69
2023-01-19T06:41:02.698Z,6.72
2023-01-19T06:43:31.956Z,6.77
2023-01-19T06:46:00.731Z,6.81
2023-01-19T06:48:28.965Z,6.86
2023-01-19T06:50:58.724Z,6.91
2023-01-19T06:53:30.174Z,6.93
2023-01-19T06:56:01.483Z,6.95
2023-01-19T06:58:30.379Z,6.97
2023-01-19T07:01:06.639Z,7.00
2023-01-19T07:03:37.396Z,7.03
2023-01-19T07:06:08.793Z,7.05
2023-01-19T07:08:38.209Z,7.07
2023-01-19T07:11:25.690Z,7.07
2023-01-19T07:13:58.651Z,7.09
2023-01-19T07:16:26.964Z,7.14
2023-01-19T07:18:55.517Z,7.17
2023-01-19T07:21:23.822Z,7.21
2023-01-19T07:23:52.860Z,7.23
2023-01-19T07:26:24.956Z,7.24
2023-01-19T07:28:53.098Z,7.27
2023-01-19T07:31:21.334Z,7.26
2023-01-19T07:33:50.041Z,7.28
2023-01-19T07:36:18.192Z,7.30
2023-01-19T07:38:46.329Z,7.34
2023-01-19T07:41:14.529Z,7.39
2023-01-19T07:43:42.805Z,7.44
2023-01-19T07:46:10.984Z,7.47
2023-01-19T07:48:39.788Z,7.52
2023-01-19T07:51:12.985Z,7.55
2023-01-19T07:53:41.956Z,7.59
2023-01-19T07:56:11.221Z,7.63
2023-01-19T07:58:39.913Z,7.67
2023-01-19T08:01:13.671Z,7.73
2023-01-19T08:03:42.457Z,7.76
2023-01-19T08:06:21.061Z,7.77
2023-01-19T08:08:49.898Z,7.81
2023-01-19T08:11:17.987Z,7.83
2023-01-19T08:13:46.084Z,7.83
2023-01-19T08:16:14.197Z,7.82
2023-01-19T08:18:42.772Z,7.84
2023-01-19T08:21:11.017Z,7.84
2023-01-19T08:23:39.217Z,7.84
2023-01-19T08:26:24.295Z,7.84
2023-01-19T08:28:52.424Z,7.87
2023-01-19T08:31:24.468Z,7.88
2023-01-19T08:33:53.922Z,7.91
2023-01-19T08:36:22.707Z,7.95
2023-01-19T08:38:51.328Z,8.00
2023-01-19T08:41:19.673Z,8.07
2023-01-19T08:43:49.196Z,8.13
2023-01-19T08:46:20.811Z,8.22
2023-01-19T08:48:50.372Z,8.32
2023-01-19T08:51:19.589Z,8.41
2023-01-19T08:53:48.321Z,8.49
2023-01-19T08:56:17.047Z,8.57
2023-01-19T08:58:49.367Z,8.63
2023-01-19T09:01:25.580Z,8.70
2023-01-19T09:03:54.632Z,8.75
2023-01-19T09:06:24.468Z,8.81
2023-01-19T09:08:52.583Z,8.87
2023-01-19T09:11:20.739Z,8.92
2023-01-19T09:13:48.890Z,8.95
2023-01-19T09:16:17.055Z,8.98
2023-01-19T09:18:46.192Z,9.00
2023-01-19T09:21:15.259Z,9.01
2023-01-19T09:23:43.347Z,9.02
2023-01-19T09:26:11.688Z,9.07
2023-01-19T09:28:39.848Z,9.13
2023-01-19T09:31:09.333Z,9.17
2023-01-19T09:33:37.807Z,9.22
2023-01-19T09:36:06.489Z,9.27
2023-01-19T09:38:34.664Z,9.32
2023-01-19T09:41:04.496Z,9.35
2023-01-19T09:43:43.165Z,9.38
2023-01-19T09:46:24.499Z,9.42
2023-01-19T09:48:59.667Z,9.45
2023-01-19T09:51:43.760Z,9.47
2023-01-19T09:54:41.121Z,9.49
2023-01-19T09:57:13.679Z,9.54
2023-01-19T09:59:43.935Z,9.58
2023-01-19T10:02:29.694Z,9.62
2023-01-19T10:05:29.626Z,9.65
2023-01-19T10:08:35.941Z,9.66
2023-01-19T10:11:10.204Z,9.66
2023-01-19T10:13:52.422Z,9.66
2023-01-19T10:16:33.878Z,9.66
2023-01-19T10:19:29.620Z,9.66
2023-01-19T10:22:03.874Z,9.65
2023-01-19T10:24:44.557Z,9.71
2023-01-19T10:27:26.274Z,9.76
2023-01-19T10:29:55.099Z,9.77
2023-01-19T10:32:32.791Z,9.80
2023-01-19T10:35:02.483Z,9.85
2023-01-19T10:37:34.487Z,9.90
2023-01-19T10:40:27.559Z,9.94
2023-01-19T10:42:57.033Z,10.04
2023-01-19T10:45:30.874Z,10.12
2023-01-19T10:48:07.346Z,10.19
2023-01-19T10:50:41.188Z,10.27
2023-01-19T10:53:22.772Z,10.33
2023-01-19T10:56:12.269Z,10.40
2023-01-19T10:58:40.818Z,10.44
2023-01-19T11:01:22.941Z,10.47
2023-01-19T11:03:53.436Z,10.50
2023-01-19T11:06:26.574Z,10.52
2023-01-19T11:09:10.802Z,10.54
2023-01-19T11:11:51.556Z,10.58
2023-01-19T11:14:24.169Z,10.65
2023-01-19T11:16:58.353Z,10.75
2023-01-19T11:19:31.738Z,10.84
2023-01-19T11:22:21.922Z,10.91
2023-01-19T11:24:50.767Z,10.97
2023-01-19T11:27:22.547Z,11.02
2023-01-19T11:30:05.313Z,11.06
2023-01-19T11:32:36.986Z,11.09
2023-01-19T11:35:41.229Z,11.11
2023-01-19T11:38:12.103Z,11.14
2023-01-19T11:40:42.103Z,11.18
2023-01-19T11:43:13.571Z,11.18
2023-01-19T11:45:44.280Z,11.18
2023-01-19T11:48:25.270Z,11.16
2023-01-19T11:50:54.660Z,11.15
2023-01-19T11:53:28.308Z,11.15
2023-01-19T11:56:11.012Z,11.11
2023-01-19T11:58:43.289Z,11.12
2023-01-19T12:01:24.693Z,11.14
2023-01-19T12:04:28.728Z,11.15
2023-01-19T12:06:59.136Z,11.16
2023-01-19T12:09:39.113Z,11.16
2023-01-19T12:12:19.822Z,11.19
2023-01-19T12:15:22.783Z,11.22
2023-01-19T12:17:58.095Z,11.26
2023-01-19T12:20:39.220Z,11.29
2023-01-19T12:23:25.910Z,11.30
2023-01-19T12:26:24.903Z,11.29
2023-01-19T12:28:54.667Z,11.27
2023-01-19T12:31:24.112Z,11.27
2023-01-19T12:33:52.924Z,11.27
2023-01-19T12:36:30.075Z,11.26
2023-01-19T12:39:23.698Z,11.26
2023-01-19T12:42:24.471Z,11.28
2023-01-19T12:45:23.217Z,11.30
2023-01-19T12:47:56.399Z,11.36
2023-01-19T12:50:26.111Z,11.41
2023-01-19T12:52:58.772Z,11.47
2023-01-19T12:55:31.509Z,11.54
2023-01-19T12:58:20.611Z,11.60
2023-01-19T13:01:10.589Z,11.64
2023-01-19T13:04:09.722Z,11.66
2023-01-19T13:06:49.935Z,11.66
2023-01-19T13:09:38.186Z,11.65
2023-01-19T13:12:15.360Z,11.67
2023-01-19T13:14:44.194Z,11.68
2023-01-19T13:17:38.746Z,11.67
2023-01-19T13:20:22.121Z,11.66
2023-01-19T13:22:52.365Z,11.65
2023-01-19T13:25:39.052Z,11.63
2023-01-19T13:28:10.335Z,11.61
2023-01-19T13:30:59.050Z,11.59
2023-01-19T13:33:33.738Z,11.57
2023-01-19T13:36:01.839Z,11.54
2023-01-19T13:38:32.872Z,11.53
2023-01-19T13:41:03.008Z,11.52
2023-01-19T13:43:37.660Z,11.50
2023-01-19T13:46:06.265Z,11.49
2023-01-19T13:48:34.604Z,11.47
2023-01-19T13:51:16.683Z,11.45
2023-01-19T13:53:59.264Z,11.43
2023-01-19T13:56:29.845Z,11.38
2023-01-19T13:59:12.709Z,11.35
2023-01-19T14:01:45.907Z,11.31
2023-01-19T14:04:35.002Z,11.29
2023-01-19T14:07:13.901Z,11.27
2023-01-19T14:09:42.105Z,11.24
2023-01-19T14:12:17.522Z,11.22
2023-01-19T14:14:49.815Z,11.20
2023-01-19T14:17:28.818Z,11.17
2023-01-19T14:20:00.989Z,11.15
2023-01-19T14:22:45.004Z,11.12
2023-01-19T14:25:30.367Z,11.08
2023-01-19T14:28:40.249Z,11.06
2023-01-19T14:31:28.681Z,11.04
2023-01-19T14:33:58.613Z,11.01
2023-01-19T14:36:34.002Z,11.00
2023-01-19T14:39:03.577Z,10.99
2023-01-19T14:41:52.918Z,10.98
2023-01-19T14:44:38.940Z,10.99
2023-01-19T14:47:25.321Z,10.98
2023-01-19T14:49:56.409Z,10.97
2023-01-19T14:52:37.335Z,10.95
2023-01-19T14:55:08.389Z,10.94
2023-01-19T14:57:37.873Z,10.92
2023-01-19T15:00:17.829Z,10.90
2023-01-19T15:02:47.501Z,10.89
2023-01-19T15:05:16.131Z,10.87
2023-01-19T15:07:46.406Z,10.86
2023-01-19T15:10:23.983Z,10.84
2023-01-19T15:12:54.597Z,10.82
2023-01-19T15:15:35.761Z,10.80
2023-01-19T15:18:06.904Z,10.79
2023-01-19T15:20:35.074Z,10.77
2023-01-19T15:23:03.207Z,10.75
2023-01-19T15:25:31.642Z,10.73
2023-01-19T15:28:00.078Z,10.73
2023-01-19T15:30:33.539Z,10.71
2023-01-19T15:33:02.514Z,10.72
2023-01-19T15:35:30.673Z,10.70
2023-01-19T15:37:58.797Z,10.68
2023-01-19T15:40:26.936Z,10.66
2023-01-19T15:42:55.500Z,10.65
2023-01-19T15:45:34.088Z,10.61
2023-01-19T15:48:08.092Z,10.58
2023-01-19T15:50:39.655Z,10.55
2023-01-19T15:53:15.891Z,10.53
2023-01-19T15:55:44.709Z,10.50
2023-01-19T15:58:14.130Z,10.48
2023-01-19T16:00:42.339Z,10.45
2023-01-19T16:03:11.263Z,10.42
2023-01-19T16:05:43.551Z,10.42
2023-01-19T16:08:12.000Z,10.40
2023-01-19T16:10:44.052Z,10.39
2023-01-19T16:13:12.363Z,10.39
2023-01-19T16:15:42.543Z,10.39
2023-01-19T16:18:10.944Z,10.38
2023-01-19T16:20:39.101Z,10.38
2023-01-19T16:23:15.021Z,10.37
2023-01-19T16:25:43.925Z,10.37
2023-01-19T16:28:12.103Z,10.36
2023-01-19T16:30:40.255Z,10.36
2023-01-19T16:33:09.102Z,10.35
2023-01-19T16:35:37.201Z,10.35
2023-01-19T16:38:05.335Z,10.34
2023-01-19T16:40:33.574Z,10.32
2023-01-19T16:43:01.682Z,10.31
2023-01-19T16:45:31.134Z,10.30
2023-01-19T16:47:59.326Z,10.28
2023-01-19T16:50:27.423Z,10.26
2023-01-19T16:52:59.094Z,10.22
2023-01-19T16:55:27.354Z,10.17
2023-01-19T16:57:55.505Z,10.13
2023-01-19T17:00:23.764Z,10.08
2023-01-19T17:02:51.912Z,10.04
2023-01-19T17:05:20.108Z,10.00
2023-01-19T17:07:48.184Z,9.97
2023-01-19T17:10:16.485Z,9.93
2023-01-19T17:12:44.552Z,9.89
2023-01-19T17:15:12.636Z,9.86
2023-01-19T17:17:40.743Z,9.81
2023-01-19T17:20:10.008Z,9.76
2023-01-19T17:22:38.422Z,9.72
2023-01-19T17:25:07.648Z,9.68
2023-01-19T17:27:36.674Z,9.64
2023-01-19T17:30:05.240Z,9.59
2023-01-19T17:32:33.393Z,9.54
2023-01-19T17:35:01.551Z,9.50
2023-01-19T17:37:29.761Z,9.47
2023-01-19T17:39:57.857Z,9.43
2023-01-19T17:42:25.924Z,9.39
2023-01-19T17:44:54.047Z,9.35
2023-01-19T17:47:25.495Z,9.31
2023-01-19T17:49:53.613Z,9.28
2023-01-19T17:52:21.719Z,9.24
2023-01-19T17:54:49.919Z,9.21
2023-01-19T17:57:18.108Z,9.19
2023-01-19T17:59:47.878Z,9.15
2023-01-19T18:02:16.218Z,9.13
2023-01-19T18:04:44.610Z,9.14
2023-01-19T18:07:12.735Z,9.20
2023-01-19T18:09:40.858Z,9.21
2023-01-19T18:12:09.011Z,9.21
2023-01-19T18:14:38.190Z,9.20
2023-01-19T18:17:06.302Z,9.20
2023-01-19T18:19:34.571Z,9.22
2023-01-19T18:22:02.804Z,9.24
2023-01-19T18:24:31.002Z,9.27
2023-01-19T18:26:59.162Z,9.28
2023-01-19T18:29:27.834Z,9.30
2023-01-19T18:31:55.964Z,9.30
2023-01-19T18:34:24.296Z,9.32
2023-01-19T18:36:52.398Z,9.30
2023-01-19T18:39:20.534Z,9.30
2023-01-19T18:41:48.614Z,9.30
2023-01-19T18:44:16.680Z,9.30
2023-01-19T18:46:44.828Z,9.28
2023-01-19T18:49:13.122Z,9.27
2023-01-19T18:51:42.016Z,9.25
2023-01-19T18:54:11.551Z,9.24
2023-01-19T18:56:39.910Z,9.22
2023-01-19T18:59:08.035Z,9.22
2023-01-19T19:01:36.504Z,9.22
2023-01-19T19:04:05.090Z,9.20
2023-01-19T19:06:34.299Z,9.18
2023-01-19T19:09:03.263Z,9.16
2023-01-19T19:11:31.542Z,9.11
2023-01-19T19:14:02.891Z,9.09
2023-01-19T19:16:33.280Z,9.07
2023-01-19T19:19:03.075Z,9.05
2023-01-19T19:21:31.179Z,9.03
2023-01-19T19:23:59.351Z,9.01
2023-01-19T19:26:28.498Z,9.00
2023-01-19T19:28:56.986Z,8.99
2023-01-19T19:31:27.699Z,8.99
2023-01-19T19:33:58.227Z,8.97
2023-01-19T19:36:28.589Z,8.95
2023-01-19T19:38:59.609Z,8.95
2023-01-19T19:41:29.099Z,8.95
2023-01-19T19:43:57.295Z,8.91
2023-01-19T19:46:26.833Z,8.87
2023-01-19T19:48:55.599Z,8.86
2023-01-19T19:51:27.322Z,8.89
2023-01-19T19:54:01.310Z,8.89
2023-01-19T19:56:34.043Z,8.91
2023-01-19T19:59:02.127Z,8.90
2023-01-19T20:01:33.442Z,8.88
2023-01-19T20:04:11.048Z,8.87
2023-01-19T20:06:44.546Z,8.84
2023-01-19T20:09:14.316Z,8.83
2023-01-19T20:11:44.728Z,8.83
2023-01-19T20:14:14.352Z,8.79
2023-01-19T20:16:43.186Z,8.78
2023-01-19T20:19:11.502Z,8.76
2023-01-19T20:21:42.029Z,8.73
2023-01-19T20:24:15.836Z,8.71
2023-01-19T20:26:47.900Z,8.68
2023-01-19T20:29:16.765Z,8.65
2023-01-19T20:31:55.016Z,8.63
2023-01-19T20:34:28.055Z,8.61
2023-01-19T20:36:57.153Z,8.58
2023-01-19T20:39:25.394Z,8.56
2023-01-19T20:41:53.926Z,8.51
2023-01-19T20:44:25.478Z,8.44
2023-01-19T20:46:55.323Z,8.36
2023-01-19T20:49:24.059Z,8.29
2023-01-19T20:51:52.416Z,8.21
2023-01-19T20:54:27.089Z,8.14
2023-01-19T20:56:56.492Z,8.07
2023-01-19T20:59:24.668Z,8.03
2023-01-19T21:01:52.933Z,7.97
2023-01-19T21:04:22.398Z,7.92
2023-01-19T21:06:50.623Z,7.87
2023-01-19T21:09:18.744Z,7.82
2023-01-19T21:11:46.895Z,7.79
2023-01-19T21:14:15.059Z,7.75
2023-01-19T21:16:43.265Z,7.70
2023-01-19T21:19:12.008Z,7.67
2023-01-19T21:21:40.157Z,7.64
2023-01-19T21:24:11.003Z,7.56
2023-01-19T21:26:39.498Z,7.50
2023-01-19T21:29:10.175Z,7.43
2023-01-19T21:31:38.283Z,7.39
2023-01-19T21:34:06.673Z,7.36
2023-01-19T21:36:34.812Z,7.33
2023-01-19T21:39:05.067Z,7.30
2023-01-19T21:41:35.765Z,7.28
2023-01-19T21:44:04.401Z,7.27
2023-01-19T21:46:33.890Z,7.26
2023-01-19T21:49:06.351Z,7.26
2023-01-19T21:51:37.071Z,7.26
2023-01-19T21:54:06.926Z,7.24
2023-01-19T21:56:37.993Z,7.21
2023-01-19T21:59:06.462Z,7.19
2023-01-19T22:01:34.983Z,7.13
2023-01-19T22:04:04.359Z,7.11
2023-01-19T22:06:32.676Z,7.10
2023-01-19T22:09:00.856Z,7.09
2023-01-19T22:11:29.273Z,7.08
2023-01-19T22:13:59.756Z,7.07
2023-01-19T22:16:29.783Z,7.07
2023-01-19T22:19:01.949Z,7.06
2023-01-19T22:21:35.029Z,7.04
2023-01-19T22:24:04.914Z,7.04
2023-01-19T22:26:34.391Z,7.01
2023-01-19T22:29:05.161Z,6.97
2023-01-19T22:31:33.396Z,6.94
2023-01-19T22:34:01.765Z,6.91
2023-01-19T22:36:33.977Z,6.90
2023-01-19T22:39:06.630Z,6.88
2023-01-19T22:41:37.919Z,6.84
2023-01-19T22:44:10.950Z,6.79
2023-01-19T22:46:39.357Z,6.75
2023-01-19T22:49:10.482Z,6.72
2023-01-19T22:51:39.038Z,6.69
2023-01-19T22:54:07.783Z,6.66
2023-01-19T22:56:38.437Z,6.62
2023-01-19T22:59:07.210Z,6.57
2023-01-19T23:01:40.244Z,6.53
2023-01-19T23:04:13.094Z,6.53
2023-01-19T23:06:42.693Z,6.51
2023-01-19T23:09:14.055Z,6.51
2023-01-19T23:11:45.641Z,6.50
2023-01-19T23:14:16.981Z,6.48
2023-01-19T23:16:47.182Z,6.46
2023-01-19T23:19:17.307Z,6.45
2023-01-19T23:21:46.211Z,6.45
2023-01-19T23:24:14.313Z,6.44
2023-01-19T23:26:42.457Z,6.43
2023-01-19T23:29:14.262Z,6.44
2023-01-19T23:31:46.978Z,6.45
2023-01-19T23:34:16.452Z,6.46
2023-01-19T23:36:44.847Z,6.44
2023-01-19T23:39:20.548Z,6.43
2023-01-19T23:41:49.848Z,6.41
2023-01-19T23:44:18.289Z,6.39
2023-01-19T23:46:46.916Z,6.34
2023-01-19T23:49:15.034Z,6.32
2023-01-19T23:51:43.134Z,6.30
2023-01-19T23:54:12.346Z,6.29
2023-01-19T23:56:42.678Z,6.28
2023-01-19T23:59:14.081Z,6.27
